Time;durP1;ratioP1;P1;durP2;ratioP2;P2;SDS_P1;SDS_P2;PMS_P1;PMS_P2;Temp;Humidity;BMP_temperature;BMP_pressure;BME280_temperature;BME280_humidity;BME280_pressure;Samples;Min_cycle;Max_cycle;Signal;HPM_P1;HPM_P2
2023/01/19 00:00:33;;;;;;;;;;;;;;;11.95;84.90;98775.91;5090932;28;20256;-42
2023/01/19 00:02:59;;;;;;;;;;;;;;;12.08;84.35;98781.75;5090823;28;19999;-43
2023/01/19 00:05:24;;;;;;;;;;;;;;;12.32;84.43;98797.69;5090602;28;19937;-44
2023/01/19 00:07:49;;;;;;;;;;;;;;;12.31;83.14;98820.06;5090807;28;19967;-44
2023/01/19 00:10:15;;;;;;;;;;;;;;;12.43;82.56;98809.34;5091561;28;19915;-44
2023/01/19 00:12:40;;;;;;;;;;;;;;;11.83;85.43;98808.69;5090892;28;19919;-43
2023/01/19 00:15:06;;;;;;;;;;;;;;;11.90;85.32;98808.59;5091585;28;19981;-43
2023/01/19 00:17:31;;;;;;;;;;;;;;;12.17;84.89;98816.06;5091610;28;19916;-44
2023/01/19 00:19:56;;;;;;;;;;;;;;;12.01;84.98;98812.28;5091614;28;19931;-43
2023/01/19 00:22:21;;;;;;;;;;;;;;;11.55;87.13;98798.75;5091766;28;19912;-43
2023/01/19 00:24:47;;;;;;;;;;;;;;;11.50;88.84;98802.13;5091598;28;20047;-43
2023/01/19 00:27:12;;;;;;;;;;;;;;;11.74;87.53;98805.56;5091423;28;20018;-43
2023/01/19 00:29:37;;;;;;;;;;;;;;;11.50;87.65;98799.44;5091235;28;19945;-43
2023/01/19 00:32:03;;;;;;;;;;;;;;;11.58;88.05;98802.81;5091291;28;19943;-45
2023/01/19 00:34:48;;;;;;;;;;;;;;;11.16;90.12;98811.72;5090965;28;19916;-43
2023/01/19 00:37:15;;;;;;;;;;;;;;;11.44;89.53;98818.19;5091132;28;20295;-44
2023/01/19 00:39:40;;;;;;;;;;;;;;;11.83;87.14;98829.22;5091440;28;19919;-43
2023/01/19 00:44:51;;;;;;;;;;;;;;;11.90;85.15;98841.41;5092136;28;19977;-45
2023/01/19 00:47:16;;;;;;;;;;;;;;;12.14;84.52;98830.69;5095761;28;19920;-43
2023/01/19 00:49:41;;;;;;;;;;;;;;;12.38;82.82;98827.97;5095293;28;19951;-44
2023/01/19 00:52:06;;;;;;;;;;;;;;;11.88;83.62;98823.97;5095048;28;19912;-44
2023/01/19 00:54:32;;;;;;;;;;;;;;;12.05;83.54;98827.59;5095283;28;20003;-45
2023/01/19 00:56:57;;;;;;;;;;;;;;;12.07;81.46;98822.81;5094828;28;19985;-44
2023/01/19 00:59:24;;;;;;;;;;;;;;;12.01;81.64;98830.94;5093817;28;19920;-45
2023/01/19 01:01:49;;;;;;;;;;;;;;;12.39;79.87;98832.22;5094817;28;19927;-43
2023/01/19 01:04:15;;;;;;;;;;;;;;;12.45;79.96;98829.44;5094910;28;19920;-42
2023/01/19 01:06:40;;;;;;;;;;;;;;;12.19;79.90;98805.97;5094858;28;19912;-45
2023/01/19 01:09:10;;;;;;;;;;;;;;;12.27;80.08;98829.59;5095395;28;19912;-45
2023/01/19 01:11:39;;;;;;;;;;;;;;;12.13;80.82;98831.75;5094871;28;19923;-44
2023/01/19 01:14:04;;;;;;;;;;;;;;;11.91;81.29;98826.22;5094684;28;19912;-44
2023/01/19 01:16:30;;;;;;;;;;;;;;;11.86;81.71;98826.06;5094887;28;19919;-44
2023/01/19 01:18:55;;;;;;;;;;;;;;;11.75;82.66;98814.38;5095437;28;19920;-43
2023/01/19 01:21:20;;;;;;;;;;;;;;;11.87;81.77;98815.16;5094762;28;19916;-44
2023/01/19 01:23:46;;;;;;;;;;;;;;;12.07;80.99;98832.66;5094938;28;20027;-43
2023/01/19 01:26:11;;;;;;;;;;;;;;;12.09;80.81;98826.06;5095041;28;19912;-43
2023/01/19 01:28:36;;;;;;;;;;;;;;;12.09;80.72;98820.72;5094802;28;19912;-42
2023/01/19 01:31:01;;;;;;;;;;;;;;;11.85;82.35;98824.44;5094954;28;20356;-43
2023/01/19 01:33:27;;;;;;;;;;;;;;;11.92;82.06;98830.50;5094652;28;19912;-44
2023/01/19 01:35:52;;;;;;;;;;;;;;;11.66;83.85;98827.25;5094656;28;20424;-45
2023/01/19 01:38:18;;;;;;;;;;;;;;;11.76;83.69;98826.66;5094615;28;19912;-45
2023/01/19 01:40:43;;;;;;;;;;;;;;;11.56;85.42;98824.34;5094557;28;19912;-43
2023/01/19 01:43:12;;;;;;;;;;;;;;;11.70;83.86;98823.06;5094615;28;19912;-44
2023/01/19 01:45:38;;;;;;;;;;;;;;;11.73;84.04;98835.13;5094280;28;19912;-44
2023/01/19 01:48:36;;;;;;;;;;;;;;;11.71;83.90;98831.88;5094637;28;20049;-43
2023/01/19 01:51:23;;;;;;;;;;;;;;;11.63;84.01;98834.88;5066541;28;20344;-44
2023/01/19 01:53:54;;;;;;;;;;;;;;;11.84;83.04;98834.31;5089506;28;19912;-44
2023/01/19 01:56:23;;;;;;;;;;;;;;;12.10;82.02;98851.66;5093504;28;19920;-43
2023/01/19 01:58:48;;;;;;;;;;;;;;;12.27;80.28;98862.41;5093581;28;19995;-43
2023/01/19 02:03:58;;;;;;;;;;;;;;;11.65;82.74;98844.28;5094338;28;19931;-43
2023/01/19 02:06:24;;;;;;;;;;;;;;;11.53;84.51;98838.13;5094301;28;19912;-44
2023/01/19 02:14:20;;;;;;;;;;;;;;;11.85;81.52;98840.44;5094116;28;19965;-44
2023/01/19 02:16:45;;;;;;;;;;;;;;;11.66;82.24;98855.75;5092407;28;19916;-42
2023/01/19 02:19:20;;;;;;;;;;;;;;;12.11;81.34;98855.16;5093627;28;20398;-45
2023/01/19 02:21:51;;;;;;;;;;;;;;;11.50;83.81;98843.94;5094169;28;19916;-44
2023/01/19 02:24:17;;;;;;;;;;;;;;;11.44;83.73;98834.19;5094166;28;19920;-45
2023/01/19 02:26:44;;;;;;;;;;;;;;;11.64;82.31;98836.53;5093914;28;19912;-44
2023/01/19 02:29:14;;;;;;;;;;;;;;;11.83;81.51;98837.22;5093733;28;19969;-44
2023/01/19 02:31:39;;;;;;;;;;;;;;;11.88;81.18;98846.13;5093651;28;19912;-45
2023/01/19 02:34:06;;;;;;;;;;;;;;;11.57;81.92;98831.28;5093276;28;19923;-44
2023/01/19 02:36:50;;;;;;;;;;;;;;;11.75;81.76;98857.03;5093870;28;19985;-44
2023/01/19 02:39:20;;;;;;;;;;;;;;;11.25;82.09;98846.78;5093541;28;19923;-46
2023/01/19 02:41:48;;;;;;;;;;;;;;;11.39;81.20;98823.44;5094062;28;19996;-44
2023/01/19 02:44:15;;;;;;;;;;;;;;;11.44;79.48;98813.72;5093769;28;19913;-44
2023/01/19 02:46:40;;;;;;;;;;;;;;;11.57;79.93;98825.16;5093263;28;19912;-44
2023/01/19 02:49:06;;;;;;;;;;;;;;;11.69;80.27;98831.28;5093269;28;19921;-44
2023/01/19 02:51:32;;;;;;;;;;;;;;;11.25;81.61;98849.47;5093333;28;19919;-44
2023/01/19 02:53:57;;;;;;;;;;;;;;;11.62;80.68;98846.59;5093079;28;19912;-44
2023/01/19 02:56:38;;;;;;;;;;;;;;;11.26;81.90;98835.13;5092505;28;20030;-44
2023/01/19 02:59:10;;;;;;;;;;;;;;;11.71;80.91;98847.88;5093649;28;19974;-44
2023/01/19 03:01:54;;;;;;;;;;;;;;;11.91;79.54;98845.66;5093330;28;20033;-44
2023/01/19 03:04:22;;;;;;;;;;;;;;;11.70;80.27;98859.56;5093152;28;19939;-43
2023/01/19 03:06:54;;;;;;;;;;;;;;;11.82;79.31;98875.56;5093116;28;19919;-43
2023/01/19 03:09:29;;;;;;;;;;;;;;;11.80;79.80;98861.66;5092748;28;19919;-43
2023/01/19 03:12:08;;;;;;;;;;;;;;;11.75;79.95;98859.69;5092982;28;19916;-44
2023/01/19 03:14:37;;;;;;;;;;;;;;;11.48;80.90;98848.66;5092604;28;19916;-43
2023/01/19 03:17:04;;;;;;;;;;;;;;;11.60;80.52;98860.16;5092382;28;19917;-44
2023/01/19 03:19:38;;;;;;;;;;;;;;;11.52;80.17;98871.16;5092633;28;19928;-45
2023/01/19 03:22:10;;;;;;;;;;;;;;;11.47;81.76;98863.03;5092696;28;19913;-43
2023/01/19 03:24:37;;;;;;;;;;;;;;;10.93;83.22;98858.53;5092488;28;20358;-44
2023/01/19 03:27:29;;;;;;;;;;;;;;;11.14;82.05;98872.38;5092373;28;20451;-44
2023/01/19 03:29:57;;;;;;;;;;;;;;;11.02;82.25;98858.22;5090431;28;19912;-44
2023/01/19 03:32:28;;;;;;;;;;;;;;;10.91;83.10;98854.50;5101359;28;19919;-45
2023/01/19 03:34:54;;;;;;;;;;;;;;;11.28;81.95;98875.66;5105879;28;19956;-44
2023/01/19 03:37:21;;;;;;;;;;;;;;;11.34;81.77;98874.72;5092170;28;19919;-44
2023/01/19 03:39:47;;;;;;;;;;;;;;;11.17;82.74;98855.94;5077443;28;20448;-44
2023/01/19 03:42:13;;;;;;;;;;;;;;;11.14;83.76;98864.41;5081037;28;19998;-43
2023/01/19 03:44:40;;;;;;;;;;;;;;;11.25;82.91;98882.25;5092458;28;20425;-44
2023/01/19 03:47:06;;;;;;;;;;;;;;;11.20;83.33;98865.34;5091194;28;19912;-44
2023/01/19 03:49:32;;;;;;;;;;;;;;;11.27;82.59;98869.50;5090281;28;19969;-44
2023/01/19 03:51:58;;;;;;;;;;;;;;;11.28;81.58;98862.31;5108786;28;20278;-45
2023/01/19 03:54:23;;;;;;;;;;;;;;;11.34;81.34;98864.88;5089011;28;20352;-44
2023/01/19 03:56:51;;;;;;;;;;;;;;;11.29;81.10;98862.09;5091776;28;19961;-43
2023/01/19 03:59:18;;;;;;;;;;;;;;;10.95;83.10;98880.44;5090652;28;20331;-44
2023/01/19 04:01:43;;;;;;;;;;;;;;;11.10;81.92;98890.66;5091568;28;19999;-43
2023/01/19 04:04:08;;;;;;;;;;;;;;;10.74;83.47;98881.75;5091628;28;20352;-43
2023/01/19 04:06:34;;;;;;;;;;;;;;;10.66;84.13;98881.22;5092097;28;20469;-44
2023/01/19 04:08:59;;;;;;;;;;;;;;;10.85;83.90;98890.81;5092485;28;19912;-43
2023/01/19 04:11:24;;;;;;;;;;;;;;;11.02;82.08;98898.94;5092130;28;20409;-47
2023/01/19 04:13:50;;;;;;;;;;;;;;;11.07;81.47;98888.44;5091918;28;20356;-45
2023/01/19 04:16:18;;;;;;;;;;;;;;;10.87;81.94;98888.75;5092008;28;19944;-43
2023/01/19 04:18:44;;;;;;;;;;;;;;;10.99;81.97;98893.28;5088841;28;19916;-43
2023/01/19 04:21:09;;;;;;;;;;;;;;;11.10;81.68;98889.81;5090913;28;19988;-43
2023/01/19 04:23:35;;;;;;;;;;;;;;;10.99;80.85;98882.66;5093410;28;20302;-45
2023/01/19 04:26:01;;;;;;;;;;;;;;;11.20;79.67;98882.13;5098434;28;19918;-43
2023/01/19 04:28:27;;;;;;;;;;;;;;;11.20;79.59;98874.13;5111599;28;19947;-43
2023/01/19 04:30:53;;;;;;;;;;;;;;;11.45;79.14;98884.59;5111747;28;19943;-44
2023/01/19 04:33:18;;;;;;;;;;;;;;;11.17;79.26;98901.19;5111553;28;19916;-44
2023/01/19 04:35:44;;;;;;;;;;;;;;;10.96;80.56;98886.56;5111504;28;20335;-43
2023/01/19 04:38:10;;;;;;;;;;;;;;;10.91;81.17;98887.25;5111447;28;19911;-44
2023/01/19 04:40:35;;;;;;;;;;;;;;;10.93;81.48;98884.38;5111131;28;19920;-44
2023/01/19 04:43:00;;;;;;;;;;;;;;;11.13;80.86;98890.19;5111378;28;19912;-44
2023/01/19 04:45:25;;;;;;;;;;;;;;;11.26;79.63;98883.84;5111348;28;20360;-43
2023/01/19 04:47:51;;;;;;;;;;;;;;;11.17;80.10;98889.75;5092714;28;19969;-43
2023/01/19 04:50:16;;;;;;;;;;;;;;;10.93;81.35;98877.19;5089376;28;20109;-44
2023/01/19 04:52:41;;;;;;;;;;;;;;;11.06;79.58;98889.50;5089573;28;19912;-44
2023/01/19 04:55:07;;;;;;;;;;;;;;;10.95;79.74;98906.25;5088012;28;19959;-43
2023/01/19 04:57:32;;;;;;;;;;;;;;;10.93;80.59;98895.00;5090216;28;19912;-43
2023/01/19 04:59:58;;;;;;;;;;;;;;;11.02;79.49;98869.66;5090165;28;20299;-44
2023/01/19 05:02:23;;;;;;;;;;;;;;;11.02;78.24;98868.88;5090977;28;19912;-44
2023/01/19 05:04:49;;;;;;;;;;;;;;;10.82;79.16;98885.94;5090892;28;19920;-43
2023/01/19 05:07:14;;;;;;;;;;;;;;;10.62;81.35;98917.31;5091287;28;19912;-43
2023/01/19 05:09:39;;;;;;;;;;;;;;;10.61;81.79;98889.09;5090476;28;19919;-45
2023/01/19 05:12:05;;;;;;;;;;;;;;;10.64;80.86;98876.16;5090849;28;19916;-45
2023/01/19 05:14:30;;;;;;;;;;;;;;;10.87;79.73;98877.25;5090797;28;19916;-43
2023/01/19 05:16:55;;;;;;;;;;;;;;;11.13;77.75;98887.53;5091023;28;20364;-44
2023/01/19 05:19:21;;;;;;;;;;;;;;;11.10;77.79;98900.47;5090390;28;19923;-43
2023/01/19 05:21:46;;;;;;;;;;;;;;;10.95;78.26;98915.03;5090914;28;19912;-44
2023/01/19 05:24:12;;;;;;;;;;;;;;;10.88;78.00;98897.53;5091099;28;19918;-45
2023/01/19 05:26:37;;;;;;;;;;;;;;;10.87;78.21;98903.88;5090045;28;20447;-44
2023/01/19 05:29:02;;;;;;;;;;;;;;;11.18;75.94;98899.38;5090009;28;19996;-46
2023/01/19 05:31:27;;;;;;;;;;;;;;;11.15;75.93;98896.09;5090228;28;19919;-46
2023/01/19 05:33:53;;;;;;;;;;;;;;;11.38;80.15;98904.38;5094140;28;20386;-46
2023/01/19 05:36:18;;;;;;;;;;;;;;;12.17;82.70;98904.09;5094178;28;19922;-44
2023/01/19 05:38:43;;;;;;;;;;;;;;;12.18;73.68;98917.16;5094538;28;19912;-43
2023/01/19 05:41:09;;;;;;;;;;;;;;;12.18;71.90;98917.16;5094142;28;19912;-43
2023/01/19 05:43:34;;;;;;;;;;;;;;;11.87;71.84;98865.00;5094072;28;19995;-44
2023/01/19 05:45:59;;;;;;;;;;;;;;;12.19;71.48;98902.81;5094002;28;20437;-45
2023/01/19 05:48:24;;;;;;;;;;;;;;;11.83;72.15;98917.97;5093963;28;19912;-44
2023/01/19 05:50:50;;;;;;;;;;;;;;;11.30;75.34;98921.50;5094332;28;19911;-43
2023/01/19 05:53:15;;;;;;;;;;;;;;;11.95;72.92;98922.53;5093219;28;19939;-44
2023/01/19 05:55:41;;;;;;;;;;;;;;;12.04;71.67;98927.28;5093516;28;19923;-43
2023/01/19 05:58:06;;;;;;;;;;;;;;;11.73;73.18;98931.09;5093419;28;20423;-44
2023/01/19 06:00:31;;;;;;;;;;;;;;;11.22;75.72;98935.16;5092911;28;19995;-45
2023/01/19 06:02:57;;;;;;;;;;;;;;;11.72;74.08;98940.09;5093086;28;20364;-43
2023/01/19 06:05:22;;;;;;;;;;;;;;;11.87;72.49;98948.47;5092810;28;19916;-46
2023/01/19 06:07:47;;;;;;;;;;;;;;;11.91;72.68;98941.66;5093231;28;19957;-43
2023/01/19 06:10:12;;;;;;;;;;;;;;;12.21;70.88;98946.06;5093441;28;19999;-43
2023/01/19 06:12:40;;;;;;;;;;;;;;;11.86;72.43;98946.84;5093390;28;20376;-43
2023/01/19 06:15:05;;;;;;;;;;;;;;;11.85;72.97;98947.06;5092837;28;19990;-44
2023/01/19 06:17:31;;;;;;;;;;;;;;;12.18;73.03;98945.72;5093546;28;19916;-44
2023/01/19 06:19:56;;;;;;;;;;;;;;;12.57;71.37;98936.13;5093151;28;19928;-44
2023/01/19 06:22:22;;;;;;;;;;;;;;;11.85;73.31;98947.06;5093276;28;19985;-43
2023/01/19 06:24:47;;;;;;;;;;;;;;;12.11;74.14;98938.66;5093183;28;19912;-43
2023/01/19 06:27:12;;;;;;;;;;;;;;;12.38;71.37;98942.69;5093140;28;19912;-44
2023/01/19 06:29:38;;;;;;;;;;;;;;;13.11;69.50;98947.31;5093138;28;19912;-43
2023/01/19 06:32:03;;;;;;;;;;;;;;;13.59;66.34;98942.56;5093113;28;20383;-45
2023/01/19 06:34:28;;;;;;;;;;;;;;;13.78;65.89;98942.31;5092666;28;19916;-44
2023/01/19 06:36:54;;;;;;;;;;;;;;;13.46;65.46;98951.72;5092529;28;20307;-45
2023/01/19 06:39:20;;;;;;;;;;;;;;;13.56;65.38;98961.75;5092825;28;19923;-44
2023/01/19 06:41:45;;;;;;;;;;;;;;;13.71;65.77;98966.56;5092973;28;20375;-43
2023/01/19 06:44:10;;;;;;;;;;;;;;;14.06;64.56;98957.47;5092173;28;20240;-45
2023/01/19 06:46:35;;;;;;;;;;;;;;;14.53;63.23;98962.38;5092722;28;19920;-43
2023/01/19 06:49:01;;;;;;;;;;;;;;;14.68;62.03;98959.13;5092703;28;20269;-43
2023/01/19 06:51:26;;;;;;;;;;;;;;;14.62;62.94;98963.63;5092366;28;20303;-46
2023/01/19 06:53:52;;;;;;;;;;;;;;;14.71;61.64;98955.94;5092802;28;19915;-44
2023/01/19 06:56:17;;;;;;;;;;;;;;;15.20;61.50;98960.50;5092422;28;20586;-45
2023/01/19 06:58:42;;;;;;;;;;;;;;;15.74;60.04;98978.44;5092499;28;19961;-44
2023/01/19 07:01:08;;;;;;;;;;;;;;;16.19;58.24;98972.59;5092025;28;20403;-46
2023/01/19 07:03:34;;;;;;;;;;;;;;;16.03;57.09;98969.00;5092447;28;19916;-46
2023/01/19 07:06:02;;;;;;;;;;;;;;;14.95;61.04;98967.19;5092306;28;20374;-44
2023/01/19 07:08:28;;;;;;;;;;;;;;;14.29;62.58;98969.81;5087394;28;19923;-44
2023/01/19 07:11:05;;;;;;;;;;;;;;;14.80;62.36;98967.84;5078103;28;19999;-44
2023/01/19 07:13:31;;;;;;;;;;;;;;;15.47;59.08;98979.25;5076504;28;19916;-45
2023/01/19 07:15:56;;;;;;;;;;;;;;;14.83;61.08;98974.53;5071262;28;19973;-46
2023/01/19 07:18:21;;;;;;;;;;;;;;;14.25;63.36;98980.19;5071101;28;19967;-43
2023/01/19 07:20:48;;;;;;;;;;;;;;;14.61;62.88;98983.41;5069818;28;20327;-42
2023/01/19 07:23:14;;;;;;;;;;;;;;;14.98;60.98;98974.75;5069427;28;20323;-42
2023/01/19 07:25:39;;;;;;;;;;;;;;;14.79;61.16;98978.78;5069662;28;19912;-43
2023/01/19 07:28:04;;;;;;;;;;;;;;;15.18;61.12;98974.16;5070072;28;19919;-44
2023/01/19 07:30:30;;;;;;;;;;;;;;;15.76;58.80;98976.31;5069843;28;19913;-42
2023/01/19 07:32:56;;;;;;;;;;;;;;;15.34;58.92;98975.09;5069950;28;20025;-44
2023/01/19 07:35:22;;;;;;;;;;;;;;;15.08;60.31;98968.69;5069396;28;20269;-44
2023/01/19 07:37:47;;;;;;;;;;;;;;;15.29;59.58;98974.25;5070415;28;19932;-44
2023/01/19 07:40:12;;;;;;;;;;;;;;;15.78;58.35;98977.69;5070885;28;19998;-44
2023/01/19 07:42:38;;;;;;;;;;;;;;;15.65;59.27;98975.41;5070635;28;20321;-43
2023/01/19 07:45:03;;;;;;;;;;;;;;;16.38;57.36;98974.88;5070727;28;19912;-43
2023/01/19 07:47:28;;;;;;;;;;;;;;;17.06;55.39;98979.47;5071638;28;20007;-43
2023/01/19 07:49:54;;;;;;;;;;;;;;;16.81;55.46;98978.28;5084411;28;19912;-44
2023/01/19 07:52:21;;;;;;;;;;;;;;;16.59;56.60;98971.19;5091259;28;19916;-44
2023/01/19 07:54:49;;;;;;;;;;;;;;;17.29;55.04;98964.75;5090311;28;20123;-43
2023/01/19 07:57:15;;;;;;;;;;;;;;;17.17;54.57;98952.38;5091469;28;19913;-43
2023/01/19 07:59:40;;;;;;;;;;;;;;;16.94;55.25;98966.25;5090798;28;19980;-45
2023/01/19 08:02:06;;;;;;;;;;;;;;;17.04;55.77;98969.00;5090988;28;19978;-44
2023/01/19 08:04:31;;;;;;;;;;;;;;;17.95;54.13;98966.66;5091030;28;19936;-43
2023/01/19 08:06:57;;;;;;;;;;;;;;;18.14;52.42;98950.75;5090980;28;20294;-44
2023/01/19 08:09:23;;;;;;;;;;;;;;;18.18;52.55;98954.50;5090790;28;19912;-44
2023/01/19 08:11:48;;;;;;;;;;;;;;;17.75;53.57;98957.50;5090990;28;20405;-43
2023/01/19 08:14:13;;;;;;;;;;;;;;;18.17;52.67;98963.69;5090679;28;19920;-43
2023/01/19 08:16:39;;;;;;;;;;;;;;;19.28;50.73;98960.81;5090790;28;19919;-44
2023/01/19 08:19:04;;;;;;;;;;;;;;;19.74;49.59;98984.00;5090791;28;19920;-43
2023/01/19 08:21:32;;;;;;;;;;;;;;;20.12;47.50;98970.69;5090846;28;20026;-43
2023/01/19 08:23:57;;;;;;;;;;;;;;;19.19;49.10;98956.28;5090887;28;19918;-43
2023/01/19 08:26:30;;;;;;;;;;;;;;;18.93;49.96;98964.53;5091062;28;19916;-42
2023/01/19 08:28:57;;;;;;;;;;;;;;;19.74;48.82;98975.91;5090522;28;20029;-43
2023/01/19 08:31:23;;;;;;;;;;;;;;;20.04;46.97;98965.94;5090697;28;19912;-43
2023/01/19 08:33:48;;;;;;;;;;;;;;;19.91;46.93;98967.38;5090703;28;20361;-43
2023/01/19 08:36:13;;;;;;;;;;;;;;;19.11;49.37;98974.69;5090711;28;19916;-42
2023/01/19 08:38:42;;;;;;;;;;;;;;;19.85;48.76;98976.63;5090843;28;19968;-42
2023/01/19 08:41:07;;;;;;;;;;;;;;;20.85;46.13;98971.56;5090050;28;20290;-43
2023/01/19 08:43:33;;;;;;;;;;;;;;;21.37;44.47;98967.03;5090270;28;20003;-42
2023/01/19 08:45:58;;;;;;;;;;;;;;;20.37;45.97;98971.53;5090643;28;20004;-42
2023/01/19 08:48:23;;;;;;;;;;;;;;;20.74;45.07;98951.94;5090413;28;19912;-42
2023/01/19 08:50:49;;;;;;;;;;;;;;;20.14;45.70;98933.41;5090332;28;20326;-43
2023/01/19 08:53:15;;;;;;;;;;;;;;;19.25;47.61;98944.41;5090533;28;19912;-42
2023/01/19 08:55:40;;;;;;;;;;;;;;;19.16;48.31;98951.47;5090304;28;19981;-42
2023/01/19 08:58:07;;;;;;;;;;;;;;;19.81;46.68;98954.00;5090421;28;19920;-42
2023/01/19 09:00:33;;;;;;;;;;;;;;;20.78;44.48;98938.66;5090357;28;19995;-42
2023/01/19 09:03:01;;;;;;;;;;;;;;;21.26;43.02;98944.72;5090524;28;19912;-42
2023/01/19 09:05:27;;;;;;;;;;;;;;;20.54;44.13;98944.84;5090028;28;20324;-42
2023/01/19 09:07:52;;;;;;;;;;;;;;;21.20;43.52;98923.47;5093924;28;19919;-42
2023/01/19 09:10:17;;;;;;;;;;;;;;;21.94;41.93;98928.25;5094540;28;20018;-41
2023/01/19 09:12:43;;;;;;;;;;;;;;;21.36;42.09;98941.09;5094420;28;19919;-41
2023/01/19 09:15:11;;;;;;;;;;;;;;;21.14;42.86;98928.16;5094332;28;19916;-41
2023/01/19 09:17:36;;;;;;;;;;;;;;;21.99;41.31;98910.00;5094482;28;20023;-43
2023/01/19 09:20:03;;;;;;;;;;;;;;;21.71;41.38;98916.47;5094107;28;19967;-43
2023/01/19 09:22:28;;;;;;;;;;;;;;;21.16;42.05;98923.25;5094570;28;19918;-43
2023/01/19 09:24:53;;;;;;;;;;;;;;;22.13;41.17;98923.56;5094436;28;20433;-41
2023/01/19 09:27:19;;;;;;;;;;;;;;;22.97;39.03;98925.13;5094260;28;19919;-43
2023/01/19 09:29:51;;;;;;;;;;;;;;;22.04;38.91;98923.44;5094277;28;19916;-40
2023/01/19 09:32:17;;;;;;;;;;;;;;;21.66;40.14;98909.22;5094623;28;19916;-41
2023/01/19 09:34:42;;;;;;;;;;;;;;;22.80;37.95;98904.06;5094320;28;19916;-41
2023/01/19 09:37:08;;;;;;;;;;;;;;;22.99;37.55;98900.41;5093823;28;19961;-41
2023/01/19 09:39:33;;;;;;;;;;;;;;;22.21;39.54;98901.19;5093608;28;19954;-40
2023/01/19 09:42:20;;;;;;;;;;;;;;;22.06;39.65;98894.16;5094005;28;19999;-41
2023/01/19 09:44:46;;;;;;;;;;;;;;;21.19;40.30;98892.09;5093784;28;20318;-41
2023/01/19 09:47:18;;;;;;;;;;;;;;;20.60;41.83;98896.97;5094189;28;19912;-41
2023/01/19 09:49:47;;;;;;;;;;;;;;;20.52;41.81;98901.09;5093614;28;19966;-41
2023/01/19 09:52:13;;;;;;;;;;;;;;;21.47;42.04;98901.16;5093714;28;19918;-42
2023/01/19 09:54:45;;;;;;;;;;;;;;;22.71;38.97;98894.25;5093570;28;19920;-42
2023/01/19 09:57:12;;;;;;;;;;;;;;;22.63;38.06;98893.06;5093396;28;20002;-40
2023/01/19 09:59:38;;;;;;;;;;;;;;;21.85;38.82;98873.97;5093897;28;19981;-41
2023/01/19 10:02:15;;;;;;;;;;;;;;;22.36;37.29;98866.78;5093205;28;19916;-41
2023/01/19 10:04:56;;;;;;;;;;;;;;;22.23;36.66;98869.16;5093174;28;19984;-41
2023/01/19 10:07:31;;;;;;;;;;;;;;;21.81;37.44;98867.53;5093368;28;19935;-41
2023/01/19 10:09:56;;;;;;;;;;;;;;;22.58;37.91;98866.03;5093247;28;19927;-41
2023/01/19 10:12:24;;;;;;;;;;;;;;;22.76;34.36;98873.25;5093227;28;19912;-42
2023/01/19 10:14:58;;;;;;;;;;;;;;;22.08;34.31;98869.47;5093125;28;20492;-41
2023/01/19 10:17:36;;;;;;;;;;;;;;;22.35;34.87;98849.75;5092371;28;20010;-42
2023/01/19 10:20:02;;;;;;;;;;;;;;;22.60;34.72;98851.09;5093024;28;19928;-43
2023/01/19 10:22:27;;;;;;;;;;;;;;;22.14;35.32;98843.91;5093203;28;19912;-42
2023/01/19 10:24:57;;;;;;;;;;;;;;;22.33;35.40;98853.84;5092675;28;19935;-41
2023/01/19 10:27:25;;;;;;;;;;;;;;;23.17;34.83;98847.09;5093194;28;19952;-42
2023/01/19 10:29:51;;;;;;;;;;;;;;;22.97;35.30;98840.25;5093193;28;19950;-41
2023/01/19 10:32:21;;;;;;;;;;;;;;;22.26;37.02;98848.84;5093113;28;20343;-41
2023/01/19 10:34:48;;;;;;;;;;;;;;;22.68;36.03;98833.31;5092945;28;19927;-41
2023/01/19 10:37:16;;;;;;;;;;;;;;;22.98;36.86;98844.53;5092337;28;19919;-42
2023/01/19 10:39:43;;;;;;;;;;;;;;;22.49;36.67;98836.16;5092783;28;19912;-42
2023/01/19 10:42:11;;;;;;;;;;;;;;;22.70;35.89;98841.13;5092460;28;19908;-42
2023/01/19 10:44:36;;;;;;;;;;;;;;;23.34;35.29;98828.25;5092470;28;19964;-42
2023/01/19 10:47:03;;;;;;;;;;;;;;;23.11;34.85;98829.34;5092737;28;19912;-42
2023/01/19 10:49:34;;;;;;;;;;;;;;;22.38;36.24;98824.72;5092556;28;20371;-42
2023/01/19 10:52:00;;;;;;;;;;;;;;;23.08;35.46;98835.41;5092663;28;19916;-43
2023/01/19 10:54:27;;;;;;;;;;;;;;;23.96;33.56;98826.63;5092631;28;19959;-44
2023/01/19 10:56:54;;;;;;;;;;;;;;;23.80;33.18;98820.84;5093024;28;20066;-42
2023/01/19 10:59:28;;;;;;;;;;;;;;;23.03;32.56;98822.75;5092153;28;19918;-43
2023/01/19 11:02:12;;;;;;;;;;;;;;;24.14;32.67;98830.19;5091850;28;19912;-42
2023/01/19 11:04:37;;;;;;;;;;;;;;;24.25;31.14;98812.47;5091736;28;19920;-41
2023/01/19 11:07:13;;;;;;;;;;;;;;;23.98;31.08;98808.91;5092210;28;19923;-41
2023/01/19 11:09:39;;;;;;;;;;;;;;;23.92;29.23;98801.22;5091966;28;19924;-42
2023/01/19 11:12:04;;;;;;;;;;;;;;;23.32;30.12;98807.94;5091867;28;20319;-42
2023/01/19 11:14:30;;;;;;;;;;;;;;;23.43;30.47;98804.63;5091556;28;20289;-42
2023/01/19 11:16:56;;;;;;;;;;;;;;;22.95;30.52;98809.91;5091598;28;20017;-42
2023/01/19 11:19:32;;;;;;;;;;;;;;;23.81;30.37;98768.88;5091377;28;19928;-40
2023/01/19 11:22:08;;;;;;;;;;;;;;;24.56;28.85;98808.88;5091208;28;19973;-43
2023/01/19 11:24:35;;;;;;;;;;;;;;;23.71;28.49;98796.31;5091369;28;19985;-42
2023/01/19 11:27:02;;;;;;;;;;;;;;;23.50;29.73;98812.34;5091642;28;19979;-41
2023/01/19 11:29:28;;;;;;;;;;;;;;;24.54;28.25;98795.63;5090201;28;19920;-41
2023/01/19 11:31:54;;;;;;;;;;;;;;;25.44;27.93;98787.84;5093347;28;19916;-42
2023/01/19 11:34:32;;;;;;;;;;;;;;;23.83;27.61;98798.47;5091162;28;19919;-41
2023/01/19 11:37:02;;;;;;;;;;;;;;;23.05;27.12;98803.47;5090392;28;20006;-41
2023/01/19 11:39:29;;;;;;;;;;;;;;;23.19;25.80;98809.63;5090003;28;19923;-42
2023/01/19 11:41:56;;;;;;;;;;;;;;;22.94;25.31;98798.25;5091626;28;20030;-42
2023/01/19 11:44:28;;;;;;;;;;;;;;;23.24;25.62;98798.63;5087781;28;19912;-42
2023/01/19 11:46:58;;;;;;;;;;;;;;;22.93;25.71;98798.56;5091301;28;19912;-41
2023/01/19 11:49:42;;;;;;;;;;;;;;;22.99;25.43;98791.91;5088800;28;19924;-41
2023/01/19 11:52:26;;;;;;;;;;;;;;;22.40;26.02;98792.69;5089403;28;19965;-41
2023/01/19 11:54:56;;;;;;;;;;;;;;;22.20;25.75;98802.06;5090181;28;19916;-35
2023/01/19 11:57:22;;;;;;;;;;;;;;;22.48;24.96;98795.78;5088474;28;19926;-37
2023/01/19 11:59:47;;;;;;;;;;;;;;;22.82;25.26;98790.66;5091080;28;19912;-36
2023/01/19 12:02:25;;;;;;;;;;;;;;;22.99;24.78;98781.84;5089768;28;19966;-36
2023/01/19 12:04:54;;;;;;;;;;;;;;;23.15;24.49;98787.75;5089603;28;20311;-37
2023/01/19 12:07:22;;;;;;;;;;;;;;;22.64;24.83;98788.94;5090479;28;19911;-42
2023/01/19 12:09:51;;;;;;;;;;;;;;;22.93;25.34;98768.72;5090532;28;20399;-42
2023/01/19 12:12:20;;;;;;;;;;;;;;;22.88;23.79;98771.56;5090316;28;20395;-41
2023/01/19 12:14:54;;;;;;;;;;;;;;;22.95;24.48;98764.59;5090864;28;19916;-42
2023/01/19 12:17:30;;;;;;;;;;;;;;;23.14;24.75;98775.28;5090766;28;19916;-42
2023/01/19 12:20:14;;;;;;;;;;;;;;;23.17;24.55;98768.41;5090557;28;19924;-42
2023/01/19 12:22:44;;;;;;;;;;;;;;;23.09;24.40;98769.97;5090413;28;19954;-41
2023/01/19 12:25:23;;;;;;;;;;;;;;;23.72;24.18;98767.22;5090244;28;19912;-41
2023/01/19 12:27:49;;;;;;;;;;;;;;;23.85;24.05;98771.78;5088813;28;19912;-41
2023/01/19 12:30:25;;;;;;;;;;;;;;;23.45;23.67;98743.81;5090680;28;19912;-41
2023/01/19 12:32:50;;;;;;;;;;;;;;;22.38;24.86;98754.25;5089042;28;19933;-43
2023/01/19 12:35:34;;;;;;;;;;;;;;;21.84;25.08;98745.91;5090289;28;21022;-43
2023/01/19 12:37:59;;;;;;;;;;;;;;;22.06;25.32;98749.78;5090382;28;19916;-42
2023/01/19 12:40:26;;;;;;;;;;;;;;;22.54;25.02;98760.16;5091105;28;19912;-42
2023/01/19 12:42:54;;;;;;;;;;;;;;;22.93;24.13;98744.31;5097380;28;19919;-41
2023/01/19 12:45:22;;;;;;;;;;;;;;;22.58;24.55;98763.03;5097965;28;19912;-42
2023/01/19 12:47:51;;;;;;;;;;;;;;;22.40;23.65;98733.06;5097903;28;19916;-43
2023/01/19 12:50:19;;;;;;;;;;;;;;;21.85;24.96;98723.13;5098223;28;19912;-41
2023/01/19 12:52:50;;;;;;;;;;;;;;;21.56;25.26;98714.53;5097833;28;20052;-42
2023/01/19 12:55:18;;;;;;;;;;;;;;;21.84;25.20;98731.56;5098002;28;19923;-43
2023/01/19 12:57:50;;;;;;;;;;;;;;;22.10;25.05;98737.22;5097516;28;19925;-41
2023/01/19 13:00:21;;;;;;;;;;;;;;;22.40;25.07;98738.50;5097736;28;19969;-42